createdAt,value
2023-03-04T00:01:55.355Z,53.03
2023-03-04T00:05:17.050Z,59.50
2023-03-04T00:08:38.632Z,58.93
2023-03-04T00:12:02.451Z,62.17
2023-03-04T00:15:24.071Z,71.97
2023-03-04T00:18:47.835Z,63.70
2023-03-04T00:22:09.461Z,65.00
2023-03-04T00:25:33.651Z,67.00
2023-03-04T00:28:55.313Z,66.20
2023-03-04T00:32:18.337Z,67.53
2023-03-04T00:35:42.604Z,58.30
2023-03-04T00:39:06.672Z,58.67
2023-03-04T00:42:28.368Z,61.93
2023-03-04T00:45:50.191Z,63.17
2023-03-04T00:49:14.068Z,63.23
2023-03-04T00:52:35.634Z,61.40
2023-03-04T00:55:57.266Z,63.20
2023-03-04T00:59:18.865Z,63.50
2023-03-04T01:02:40.572Z,67.00
2023-03-04T01:06:02.323Z,58.80
2023-03-04T01:09:23.972Z,61.33
2023-03-04T01:12:45.596Z,65.53
2023-03-04T01:16:07.848Z,62.47
2023-03-04T01:19:31.715Z,60.23
2023-03-04T01:22:53.282Z,60.43
2023-03-04T01:26:14.857Z,57.17
2023-03-04T01:29:39.160Z,50.80
2023-03-04T01:33:00.736Z,49.93
2023-03-04T01:36:22.671Z,40.97
2023-03-04T01:39:46.555Z,30.40
2023-03-04T01:43:15.436Z,22.97
2023-03-04T01:46:37.491Z,16.83
2023-03-04T01:50:01.562Z,15.53
2023-03-04T01:53:25.584Z,16.10
2023-03-04T01:56:48.726Z,16.63
2023-03-04T02:00:27.406Z,17.03
2023-03-04T02:03:48.997Z,12.82
2023-03-04T02:07:10.644Z,19.10
2023-03-04T02:10:32.934Z,15.47
2023-03-04T02:13:54.636Z,28.27
2023-03-04T02:17:16.220Z,15.80
2023-03-04T02:21:00.333Z,12.93
2023-03-04T02:25:03.238Z,13.87
2023-03-04T02:28:24.818Z,20.00
2023-03-04T02:31:50.030Z,14.40
2023-03-04T02:35:18.383Z,15.30
2023-03-04T02:38:40.414Z,16.08
2023-03-04T02:42:03.678Z,34.13
2023-03-04T02:45:39.176Z,33.70
2023-03-04T02:49:00.768Z,12.53
2023-03-04T02:52:27.154Z,15.67
2023-03-04T02:55:48.925Z,17.80
2023-03-04T02:59:12.726Z,14.47
2023-03-04T03:02:34.282Z,17.60
2023-03-04T03:05:55.972Z,18.10
2023-03-04T03:09:20.535Z,14.87
2023-03-04T03:12:42.120Z,18.47
2023-03-04T03:16:06.112Z,15.40
2023-03-04T03:19:30.135Z,15.93
2023-03-04T03:22:54.282Z,15.97
2023-03-04T03:26:17.993Z,19.13
2023-03-04T03:29:39.536Z,18.00
2023-03-04T03:33:01.120Z,17.03
2023-03-04T03:36:22.715Z,15.60
2023-03-04T03:39:47.210Z,17.87
2023-03-04T03:43:09.054Z,17.83
2023-03-04T03:46:30.623Z,16.37
2023-03-04T03:49:56.684Z,16.43
2023-03-04T03:53:18.350Z,15.80
2023-03-04T03:56:40.119Z,19.33
2023-03-04T04:00:01.887Z,17.70
2023-03-04T04:03:29.455Z,17.23
2023-03-04T04:06:55.771Z,15.90
2023-03-04T04:10:20.661Z,15.53
2023-03-04T04:13:42.442Z,17.90
2023-03-04T04:17:04.034Z,17.37
2023-03-04T04:20:26.299Z,21.07
2023-03-04T04:23:50.155Z,22.60
2023-03-04T04:27:12.427Z,21.80
2023-03-04T04:30:34.008Z,16.43
2023-03-04T04:33:57.996Z,17.77
2023-03-04T04:37:19.616Z,15.47
2023-03-04T04:40:43.282Z,17.23
2023-03-04T04:44:05.177Z,19.57
2023-03-04T04:47:26.813Z,16.70
2023-03-04T04:50:57.148Z,18.03
2023-03-04T04:54:22.000Z,15.87
2023-03-04T04:57:43.653Z,18.93
2023-03-04T05:01:08.651Z,16.70
2023-03-04T05:04:32.492Z,19.90
2023-03-04T05:07:58.893Z,16.97
2023-03-04T05:11:27.968Z,19.17
2023-03-04T05:14:52.212Z,17.37
2023-03-04T05:18:17.268Z,20.27
2023-03-04T05:21:38.883Z,18.10
2023-03-04T05:25:00.451Z,20.40
2023-03-04T05:28:22.104Z,17.43
2023-03-04T05:31:45.914Z,17.90
2023-03-04T05:35:09.828Z,20.33
2023-03-04T05:38:34.081Z,19.97
2023-03-04T05:41:55.974Z,20.57
2023-03-04T05:45:20.014Z,48.47
2023-03-04T05:48:42.083Z,25.77
2023-03-04T05:52:03.817Z,22.50
2023-03-04T05:55:27.756Z,27.07
2023-03-04T05:58:51.793Z,20.73
2023-03-04T06:02:13.369Z,21.07
2023-03-04T06:05:36.968Z,23.77
2023-03-04T06:08:59.147Z,21.90
2023-03-04T06:12:20.921Z,24.37
2023-03-04T06:15:42.507Z,19.00
2023-03-04T06:19:04.166Z,20.77
2023-03-04T06:22:25.755Z,22.73
2023-03-04T06:25:51.092Z,22.27
2023-03-04T06:29:13.225Z,18.83
2023-03-04T06:32:37.030Z,22.87
2023-03-04T06:36:01.160Z,21.53
2023-03-04T06:39:22.948Z,22.67
2023-03-04T06:42:47.813Z,19.83
2023-03-04T06:46:09.656Z,18.40
2023-03-04T06:49:31.226Z,21.47
2023-03-04T06:52:52.879Z,21.50
2023-03-04T06:56:17.415Z,16.57
2023-03-04T06:59:43.761Z,16.47
2023-03-04T07:03:07.855Z,21.50
2023-03-04T07:06:31.769Z,18.70
2023-03-04T07:09:55.744Z,15.47
2023-03-04T07:13:17.324Z,18.20
2023-03-04T07:16:44.158Z,20.93
2023-03-04T07:20:06.503Z,18.80
2023-03-04T07:23:28.119Z,21.87
2023-03-04T07:26:49.661Z,26.97
2023-03-04T07:30:11.959Z,32.00
2023-03-04T07:33:36.500Z,21.83
2023-03-04T07:36:58.069Z,20.97
2023-03-04T07:40:21.387Z,23.07
2023-03-04T07:43:45.837Z,22.47
2023-03-04T07:47:07.449Z,24.50
2023-03-04T07:50:29.156Z,26.40
2023-03-04T07:53:53.756Z,25.55
2023-03-04T07:57:15.434Z,26.63
2023-03-04T08:00:41.422Z,24.93
2023-03-04T08:04:05.428Z,24.70
2023-03-04T08:07:29.742Z,21.40
2023-03-04T08:10:53.704Z,20.70
2023-03-04T08:14:15.374Z,19.50
2023-03-04T08:17:39.183Z,22.83
2023-03-04T08:21:00.808Z,20.88
2023-03-04T08:24:22.502Z,22.10
2023-03-04T08:27:48.663Z,25.77
2023-03-04T08:31:10.393Z,21.65
2023-03-04T08:34:34.374Z,20.58
2023-03-04T08:37:59.711Z,20.05
2023-03-04T08:41:27.392Z,20.40
2023-03-04T08:44:49.289Z,17.52
2023-03-04T08:48:13.890Z,18.45
2023-03-04T08:51:35.932Z,17.15
2023-03-04T08:55:00.228Z,18.58
2023-03-04T08:58:21.917Z,22.00
2023-03-04T09:01:46.222Z,21.77
2023-03-04T09:05:08.512Z,20.75
2023-03-04T09:08:32.504Z,19.15
2023-03-04T09:11:54.133Z,17.98
2023-03-04T09:15:17.930Z,18.67
2023-03-04T09:18:43.117Z,18.15
2023-03-04T09:22:06.957Z,19.23
2023-03-04T09:25:31.316Z,16.98
2023-03-04T09:28:57.440Z,19.90
2023-03-04T09:32:21.513Z,19.95
2023-03-04T09:35:43.999Z,29.25
2023-03-04T09:39:05.818Z,26.55
2023-03-04T09:42:35.389Z,23.65
2023-03-04T09:46:03.156Z,19.45
2023-03-04T09:49:28.151Z,19.52
2023-03-04T09:53:11.044Z,25.05
2023-03-04T09:56:36.619Z,24.88
2023-03-04T10:00:07.792Z,24.33
2023-03-04T10:03:52.215Z,21.58
2023-03-04T10:07:22.902Z,22.33
2023-03-04T10:10:49.218Z,19.70
2023-03-04T10:14:22.979Z,22.73
2023-03-04T10:17:48.227Z,23.02
2023-03-04T10:21:20.172Z,21.25
2023-03-04T10:24:41.760Z,21.77
2023-03-04T10:28:16.123Z,23.63
2023-03-04T10:31:38.605Z,24.55
2023-03-04T10:35:02.497Z,20.50
2023-03-04T10:38:24.801Z,23.50
2023-03-04T10:41:59.236Z,20.95
2023-03-04T10:45:27.870Z,29.15
2023-03-04T10:48:50.200Z,25.27
2023-03-04T10:52:35.375Z,28.17
2023-03-04T10:55:56.938Z,27.95
2023-03-04T10:59:53.705Z,21.40
2023-03-04T11:03:38.708Z,26.83
2023-03-04T11:07:08.808Z,21.70
2023-03-04T11:10:40.521Z,20.75
2023-03-04T11:14:13.199Z,22.40
2023-03-04T11:17:45.537Z,25.17
2023-03-04T11:21:12.830Z,20.40
2023-03-04T11:24:40.107Z,21.95
2023-03-04T11:28:11.601Z,28.77
2023-03-04T11:31:48.625Z,21.20
2023-03-04T11:35:13.468Z,20.70
2023-03-04T11:38:48.236Z,18.27
2023-03-04T11:42:20.672Z,18.42
2023-03-04T11:45:53.764Z,20.67
2023-03-04T11:49:27.601Z,19.45
2023-03-04T11:53:13.775Z,22.48
2023-03-04T11:56:42.421Z,21.30
2023-03-04T12:00:16.314Z,20.80
2023-03-04T12:03:51.924Z,18.92
2023-03-04T12:07:44.175Z,21.25
2023-03-04T12:11:24.339Z,19.25
2023-03-04T12:14:49.218Z,19.02
2023-03-04T12:18:32.088Z,19.02
2023-03-04T12:22:14.902Z,20.63
2023-03-04T12:25:42.525Z,20.83
2023-03-04T12:29:30.894Z,21.27
2023-03-04T12:33:21.309Z,24.17
2023-03-04T12:36:58.800Z,21.77
2023-03-04T12:40:45.148Z,22.20
2023-03-04T12:44:19.349Z,20.30
2023-03-04T12:48:08.798Z,18.75
2023-03-04T12:55:04.516Z,22.20
2023-03-04T12:58:31.818Z,19.60
2023-03-04T13:01:53.916Z,22.58
2023-03-04T13:05:19.769Z,16.98
2023-03-04T13:08:51.573Z,20.17
2023-03-04T13:12:22.601Z,22.77
2023-03-04T13:16:02.351Z,16.88
2023-03-04T13:19:45.370Z,16.60
2023-03-04T13:23:10.200Z,22.98
2023-03-04T13:26:34.372Z,21.30
2023-03-04T13:29:56.041Z,20.85
2023-03-04T13:33:17.591Z,18.00
2023-03-04T13:37:04.499Z,19.95
2023-03-04T13:40:36.893Z,16.42
2023-03-04T13:43:59.566Z,18.02
2023-03-04T13:47:27.368Z,17.33
2023-03-04T13:50:50.615Z,15.60
2023-03-04T13:54:24.445Z,15.50
2023-03-04T13:57:50.310Z,13.73
2023-03-04T14:01:27.837Z,16.75
2023-03-04T14:05:00.882Z,15.73
2023-03-04T14:08:28.450Z,13.30
2023-03-04T14:11:54.558Z,11.63
2023-03-04T14:15:23.541Z,13.85
2023-03-04T14:18:45.127Z,13.18
2023-03-04T14:22:25.348Z,15.88
2023-03-04T14:25:51.786Z,17.13
2023-03-04T14:29:29.370Z,10.80
2023-03-04T14:32:54.670Z,10.18
2023-03-04T14:36:23.568Z,11.32
2023-03-04T14:39:45.641Z,13.85
2023-03-04T14:43:18.333Z,17.85
2023-03-04T14:46:51.264Z,12.40
2023-03-04T14:50:20.317Z,11.63
2023-03-04T14:53:57.794Z,12.35
2023-03-04T14:57:21.081Z,11.18
2023-03-04T15:00:43.218Z,10.35
2023-03-04T15:04:06.263Z,10.60
2023-03-04T15:07:34.609Z,10.93
2023-03-04T15:11:02.399Z,10.73
2023-03-04T15:14:43.375Z,11.35
2023-03-04T15:18:20.049Z,13.43
2023-03-04T15:21:41.930Z,10.90
2023-03-04T15:25:06.520Z,11.13
2023-03-04T15:28:36.356Z,15.35
2023-03-04T15:31:58.018Z,13.45
2023-03-04T15:35:20.816Z,13.60
2023-03-04T15:38:47.688Z,14.57
2023-03-04T15:42:13.276Z,14.23
2023-03-04T15:45:39.361Z,15.77
2023-03-04T15:49:01.220Z,15.60
2023-03-04T15:52:23.533Z,15.15
2023-03-04T15:55:46.592Z,14.88
2023-03-04T15:59:16.051Z,22.38
2023-03-04T16:02:37.624Z,20.52
2023-03-04T16:06:01.765Z,16.30
2023-03-04T16:09:23.348Z,17.00
2023-03-04T16:12:47.666Z,14.57
2023-03-04T16:16:13.564Z,18.13
2023-03-04T16:19:35.179Z,17.65
2023-03-04T16:23:02.324Z,17.13
2023-03-04T16:26:25.772Z,18.17
2023-03-04T16:29:47.339Z,17.85
2023-03-04T16:33:11.449Z,16.20
2023-03-04T16:36:35.852Z,24.75
2023-03-04T16:40:00.398Z,28.40
2023-03-04T16:43:25.490Z,18.92
2023-03-04T16:46:47.171Z,18.63
2023-03-04T16:50:18.143Z,22.95
2023-03-04T16:53:40.690Z,19.87
2023-03-04T16:57:02.759Z,20.30
2023-03-04T17:00:30.915Z,20.50
2023-03-04T17:03:55.777Z,18.75
2023-03-04T17:07:17.722Z,16.85
2023-03-04T17:10:39.512Z,19.98
2023-03-04T17:14:01.356Z,19.75
2023-03-04T17:17:25.641Z,20.67
2023-03-04T17:20:47.243Z,19.10
2023-03-04T17:24:12.048Z,17.65
2023-03-04T17:27:33.806Z,18.23
2023-03-04T17:30:57.666Z,21.13
2023-03-04T17:34:21.776Z,20.97
2023-03-04T17:37:45.558Z,17.42
2023-03-04T17:41:13.373Z,17.73
2023-03-04T17:44:34.996Z,18.02
2023-03-04T17:47:58.828Z,16.73
2023-03-04T17:51:29.238Z,18.57
2023-03-04T17:54:50.921Z,18.03
2023-03-04T17:58:12.468Z,20.83
2023-03-04T18:01:34.461Z,19.87
2023-03-04T18:04:56.040Z,18.00
2023-03-04T18:08:18.060Z,18.40
2023-03-04T18:11:40.796Z,20.50
2023-03-04T18:15:04.878Z,21.53
2023-03-04T18:18:30.921Z,20.77
2023-03-04T18:21:54.832Z,22.97
2023-03-04T18:25:16.954Z,21.00
2023-03-04T18:28:41.172Z,23.07
2023-03-04T18:32:02.885Z,25.60
2023-03-04T18:35:24.601Z,20.63
2023-03-04T18:38:46.195Z,24.10
2023-03-04T18:42:08.048Z,22.10
2023-03-04T18:45:29.793Z,19.93
2023-03-04T18:48:55.207Z,21.27
2023-03-04T18:52:16.785Z,20.47
2023-03-04T18:55:38.384Z,18.30
2023-03-04T18:59:00.265Z,24.27
2023-03-04T19:02:40.522Z,14.10
2023-03-04T19:06:02.126Z,14.43
2023-03-04T19:09:24.021Z,12.63
2023-03-04T19:12:45.642Z,12.13
2023-03-04T19:16:10.243Z,10.43
2023-03-04T19:19:34.441Z,10.27
2023-03-04T19:22:56.650Z,10.10
2023-03-04T19:26:18.240Z,9.10
2023-03-04T19:29:42.640Z,9.67
2023-03-04T19:33:04.307Z,9.00
2023-03-04T19:36:26.513Z,7.90
2023-03-04T19:39:49.173Z,5.10
2023-03-04T19:43:10.781Z,29.63
2023-03-04T19:46:32.387Z,8.03
2023-03-04T19:49:56.282Z,7.90
2023-03-04T19:53:20.347Z,6.57
2023-03-04T19:56:41.939Z,8.90
2023-03-04T20:00:06.440Z,7.10
2023-03-04T20:03:28.159Z,6.13
2023-03-04T20:06:51.162Z,6.93
2023-03-04T20:10:14.666Z,7.27
2023-03-04T20:13:36.229Z,6.77
2023-03-04T20:17:03.087Z,7.63
2023-03-04T20:20:29.245Z,9.13
2023-03-04T20:23:50.865Z,6.20
2023-03-04T20:27:18.041Z,8.63
2023-03-04T20:30:41.885Z,8.87
2023-03-04T20:34:03.537Z,5.90
2023-03-04T20:37:27.339Z,6.83
2023-03-04T20:40:50.942Z,9.10
2023-03-04T20:44:15.262Z,7.90
2023-03-04T20:47:39.729Z,8.03
2023-03-04T20:51:01.469Z,8.27
2023-03-04T20:54:25.508Z,8.27
2023-03-04T20:57:49.482Z,8.23
2023-03-04T21:01:11.229Z,7.07
2023-03-04T21:04:34.416Z,6.80
2023-03-04T21:07:56.065Z,7.43
2023-03-04T21:11:19.471Z,8.73
2023-03-04T21:14:44.924Z,7.17
2023-03-04T21:18:06.521Z,7.70
2023-03-04T21:21:29.399Z,7.57
2023-03-04T21:24:53.586Z,7.33
2023-03-04T21:28:18.913Z,8.50
2023-03-04T21:31:43.430Z,8.67
2023-03-04T21:35:05.526Z,7.70
2023-03-04T21:38:27.146Z,7.30
2023-03-04T21:41:49.196Z,7.27
2023-03-04T21:45:13.989Z,8.37
2023-03-04T21:48:36.582Z,7.23
2023-03-04T21:52:00.300Z,9.33
2023-03-04T21:55:26.612Z,12.83
2023-03-04T21:58:48.232Z,8.93
2023-03-04T22:02:15.885Z,10.73
2023-03-04T22:05:44.842Z,9.77
2023-03-04T22:12:28.500Z,9.13
2023-03-04T22:15:50.054Z,9.87
2023-03-04T22:19:13.872Z,8.53
2023-03-04T22:22:39.971Z,8.30
2023-03-04T22:26:10.840Z,9.43
2023-03-04T22:29:32.524Z,8.37
2023-03-04T22:32:58.648Z,7.80
2023-03-04T22:36:22.916Z,10.87
2023-03-04T22:39:49.382Z,8.63
2023-03-04T22:43:11.028Z,10.93
2023-03-04T22:46:34.745Z,8.93
2023-03-04T22:49:56.342Z,8.03
2023-03-04T22:53:20.209Z,10.20
2023-03-04T22:56:41.910Z,9.27
2023-03-04T23:00:15.603Z,8.83
2023-03-04T23:03:37.990Z,8.27
2023-03-04T23:06:59.605Z,9.87
2023-03-04T23:10:24.882Z,8.73
2023-03-04T23:13:49.748Z,10.03
2023-03-04T23:17:11.350Z,10.17
2023-03-04T23:20:33.160Z,10.30
2023-03-04T23:23:54.732Z,10.10
2023-03-04T23:27:16.385Z,8.90
2023-03-04T23:30:38.186Z,11.67
2023-03-04T23:34:03.308Z,9.77
2023-03-04T23:37:26.969Z,7.77
2023-03-04T23:40:48.581Z,10.73
2023-03-04T23:44:13.218Z,10.57
2023-03-04T23:47:34.915Z,9.33
2023-03-04T23:50:59.199Z,11.10
2023-03-04T23:54:23.250Z,8.97
2023-03-04T23:57:46.003Z,9.50
